Time;durP1;ratioP1;P1;durP2;ratioP2;P2;SDS_P1;SDS_P2;PMS_P1;PMS_P2;Temp;Humidity;BMP_temperature;BMP_pressure;BME280_temperature;BME280_humidity;BME280_pressure;Samples;Min_cycle;Max_cycle;Signal;HPM_P1;HPM_P2
2023/08/02 00:00:52;;;;;;;1.90;1.20;;;21.00;76.40;;;;;;4950903;28;20479;-36
2023/08/02 00:03:19;;;;;;;1.42;1.17;;;;;;;;;;4958118;28;20126;-36
2023/08/02 00:05:53;;;;;;;1.92;1.30;;;20.50;70.50;;;;;;4966437;28;20134;-36
2023/08/02 00:08:20;;;;;;;1.33;1.08;;;;;;;;;;4953334;28;20079;-33
2023/08/02 00:10:47;;;;;;;1.70;1.13;;;20.30;84.30;;;;;;4950787;28;20135;-37
2023/08/02 00:13:13;;;;;;;2.40;1.25;;;20.80;84.40;;;;;;4950868;28;20083;-37
2023/08/02 00:15:41;;;;;;;1.13;1.00;;;20.90;68.30;;;;;;4951005;28;20574;-34
2023/08/02 00:18:08;;;;;;;2.25;1.13;;;;;;;;;;4950498;28;20603;-34
2023/08/02 00:20:36;;;;;;;2.22;1.13;;;20.60;84.20;;;;;;4952881;28;20496;-39
2023/08/02 00:23:03;;;;;;;1.77;1.10;;;20.70;84.30;;;;;;4954167;28;20146;-37
2023/08/02 00:25:30;;;;;;;2.28;1.33;;;20.60;84.70;;;;;;4954321;28;20089;-38
2023/08/02 00:27:57;;;;;;;2.03;1.10;;;;;;;;;;4954130;28;20126;-32
2023/08/02 00:30:23;;;;;;;1.15;0.98;;;19.90;83.60;;;;;;4953965;28;20130;-36
2023/08/02 00:32:51;;;;;;;1.92;1.20;;;20.10;83.70;;;;;;4962148;28;20135;-36
2023/08/02 00:35:18;;;;;;;1.63;1.08;;;20.80;84.10;;;;;;4954299;28;20130;-37
2023/08/02 00:37:45;;;;;;;1.25;1.10;;;20.00;75.00;;;;;;4968989;28;20135;-36
2023/08/02 00:40:12;;;;;;;2.05;1.20;;;21.30;84.30;;;;;;4972789;28;20130;-40
2023/08/02 00:42:39;;;;;;;1.73;1.20;;;21.30;75.10;;;;;;4967238;28;20134;-35
2023/08/02 00:45:07;;;;;;;2.85;1.20;;;20.10;83.70;;;;;;4953869;28;20487;-37
2023/08/02 00:47:34;;;;;;;1.33;1.08;;;21.50;85.20;;;;;;4953920;28;20134;-37
2023/08/02 00:50:02;;;;;;;2.08;1.27;;;20.80;84.90;;;;;;4953823;28;20051;-37
2023/08/02 00:52:28;;;;;;;1.67;1.20;;;21.20;84.20;;;;;;4953470;28;20142;-38
2023/08/02 00:54:56;;;;;;;1.40;1.00;;;;;;;;;;4953768;28;20129;-35
2023/08/02 00:57:22;;;;;;;2.30;1.00;;;20.90;84.80;;;;;;4953804;28;20078;-38
2023/08/02 00:59:49;;;;;;;2.40;1.10;;;20.50;83.90;;;;;;4953536;28;20834;-39
2023/08/02 01:02:16;;;;;;;2.28;1.05;;;21.90;74.60;;;;;;4953739;28;20146;-33
2023/08/02 01:04:42;;;;;;;2.05;1.30;;;20.50;83.80;;;;;;4953728;28;20584;-36
2023/08/02 01:07:14;;;;;;;2.58;1.30;;;20.80;68.30;;;;;;4961370;28;20127;-39
2023/08/02 01:09:43;;;;;;;1.63;1.20;;;21.20;85.00;;;;;;4966022;28;20135;-38
2023/08/02 01:12:10;;;;;;;2.20;1.10;;;20.80;68.40;;;;;;4954189;28;20134;-35
2023/08/02 01:14:38;;;;;;;1.25;1.00;;;21.80;84.50;;;;;;4972733;28;20559;-36
2023/08/02 01:17:05;;;;;;;1.52;1.00;;;20.70;84.30;;;;;;4972807;28;20130;-37
2023/08/02 01:19:32;;;;;;;1.17;1.00;;;;;;;;;;4972597;28;20047;-34
2023/08/02 01:22:00;;;;;;;1.33;1.00;;;20.70;84.10;;;;;;4972413;28;20062;-37
2023/08/02 01:24:31;;;;;;;1.95;1.15;;;21.80;84.90;;;;;;4972432;28;20081;-38
2023/08/02 01:26:58;;;;;;;1.60;1.10;;;20.70;83.90;;;;;;4971295;28;20141;-39
2023/08/02 01:29:25;;;;;;;1.33;1.00;;;20.30;78.20;;;;;;4953664;28;20139;-36
2023/08/02 01:31:51;;;;;;;1.40;1.02;;;20.30;83.80;;;;;;4951827;28;20568;-34
2023/08/02 01:34:18;;;;;;;1.60;1.10;;;20.60;83.90;;;;;;4953115;28;20130;-39
2023/08/02 01:36:45;;;;;;;2.88;1.20;;;21.10;76.10;;;;;;4959973;28;20514;-37
2023/08/02 01:39:14;;;;;;;1.48;1.00;;;20.40;83.80;;;;;;4971911;28;20130;-38
2023/08/02 01:41:41;;;;;;;2.05;1.10;;;;;;;;;;4962178;28;20142;-32
2023/08/02 01:44:08;;;;;;;1.90;1.00;;;;;;;;;;4954060;28;20141;-38
2023/08/02 01:46:35;;;;;;;1.58;1.20;;;;;;;;;;4953113;28;20146;-34
2023/08/02 01:49:02;;;;;;;2.03;1.20;;;21.10;85.00;;;;;;4952779;28;20130;-37
2023/08/02 01:51:28;;;;;;;1.05;0.90;;;19.60;83.40;;;;;;4952957;28;20059;-36
2023/08/02 01:53:55;;;;;;;1.35;1.10;;;;;;;;;;4952593;28;20592;-36
2023/08/02 01:56:23;;;;;;;2.40;1.20;;;20.80;68.20;;;;;;4952856;28;20480;-36
2023/08/02 01:58:50;;;;;;;1.80;1.00;;;21.00;75.00;;;;;;4952882;28;20138;-36
2023/08/02 02:01:17;;;;;;;1.45;1.15;;;21.00;84.90;;;;;;4952887;28;20624;-36
2023/08/02 02:03:43;;;;;;;1.90;1.20;;;20.80;73.20;;;;;;4952454;28;20082;-38
2023/08/02 02:06:10;;;;;;;1.67;1.05;;;20.60;83.80;;;;;;4952840;28;20182;-35
2023/08/02 02:08:37;;;;;;;1.88;1.20;;;21.70;84.50;;;;;;4952533;28;20090;-37
2023/08/02 02:11:04;;;;;;;1.48;0.90;;;;;;;;;;4957148;28;20134;-36
2023/08/02 02:13:32;;;;;;;1.88;1.27;;;21.00;74.00;;;;;;4971752;28;20050;-34
2023/08/02 02:15:59;;;;;;;2.20;1.20;;;21.10;85.00;;;;;;4972080;28;20135;-39
2023/08/02 02:18:26;;;;;;;1.45;1.10;;;20.90;71.40;;;;;;4971725;28;20133;-36
2023/08/02 02:20:53;;;;;;;1.60;1.05;;;19.80;83.80;;;;;;4971540;28;20122;-36
2023/08/02 02:23:20;;;;;;;1.70;1.20;;;;;;;;;;4971138;28;20139;-37
2023/08/02 02:25:46;;;;;;;2.30;1.10;;;20.60;80.20;;;;;;4952402;29;20134;-35
2023/08/02 02:28:13;;;;;;;1.30;1.00;;;19.90;79.20;;;;;;4952633;28;20066;-39
2023/08/02 02:30:43;;;;;;;1.92;1.35;;;20.40;83.70;;;;;;4952201;28;20641;-36
2023/08/02 02:33:10;;;;;;;2.08;1.10;;;;;;;;;;4952025;28;20138;-35
2023/08/02 02:35:37;;;;;;;1.27;1.05;;;20.50;77.50;;;;;;4952273;28;20139;-37
2023/08/02 02:38:04;;;;;;;1.33;1.00;;;20.30;84.10;;;;;;4969505;28;20105;-39
2023/08/02 02:40:31;;;;;;;1.65;1.20;;;;;;;;;;4971293;28;20583;-36
2023/08/02 02:42:57;;;;;;;1.40;1.00;;;21.00;84.20;;;;;;4951733;28;20479;-38
2023/08/02 02:45:24;;;;;;;1.55;1.15;;;21.40;84.40;;;;;;4952326;28;20083;-40
2023/08/02 02:47:52;;;;;;;1.73;1.10;;;21.10;78.50;;;;;;4952186;28;20137;-36
2023/08/02 02:50:19;;;;;;;1.63;1.10;;;20.90;77.20;;;;;;4952601;28;20150;-36
2023/08/02 02:52:46;;;;;;;1.40;1.00;;;20.80;84.00;;;;;;4968668;28;20138;-38
2023/08/02 02:55:12;;;;;;;2.35;1.08;;;21.50;85.20;;;;;;4971533;28;20130;-39
2023/08/02 02:57:39;;;;;;;1.85;1.17;;;;;;;;;;4971395;28;20134;-33
2023/08/02 03:00:08;;;;;;;1.25;1.10;;;20.40;84.20;;;;;;4971313;28;20126;-38
2023/08/02 03:02:35;;;;;;;1.60;1.05;;;;;;;;;;4974074;28;20504;-36
2023/08/02 03:05:03;;;;;;;1.92;1.15;;;21.00;84.10;;;;;;4963291;28;20126;-39
2023/08/02 03:07:31;;;;;;;1.73;1.15;;;;;;;;;;4961147;28;20063;-35
2023/08/02 03:09:58;;;;;;;1.27;1.05;;;21.50;83.40;;;;;;4962128;28;20055;-36
2023/08/02 03:12:24;;;;;;;2.38;1.20;;;20.00;84.50;;;;;;4971768;28;20171;-36
2023/08/02 03:14:52;;;;;;;1.65;1.10;;;;;;;;;;4961008;28;20082;-36
2023/08/02 03:17:19;;;;;;;1.67;1.00;;;;;;;;;;4961959;28;20055;-38
2023/08/02 03:19:46;;;;;;;2.42;1.00;;;;;;;;;;4960237;28;20455;-37
2023/08/02 03:22:14;;;;;;;2.80;1.00;;;20.70;68.10;;;;;;4973785;28;20066;-39
2023/08/02 03:24:40;;;;;;;1.88;1.00;;;20.30;83.80;;;;;;4959938;28;20129;-38
2023/08/02 03:27:07;;;;;;;1.27;1.17;;;20.70;84.40;;;;;;4961796;28;20131;-40
2023/08/02 03:29:35;;;;;;;1.52;1.00;;;21.50;69.20;;;;;;4970719;28;20134;-38
2023/08/02 03:32:02;;;;;;;2.72;1.10;;;20.30;77.20;;;;;;4970266;28;20080;-36
2023/08/02 03:34:28;;;;;;;2.65;1.40;;;21.10;75.80;;;;;;4970882;28;20137;-33
2023/08/02 03:36:55;;;;;;;1.35;1.10;;;20.50;84.20;;;;;;4970392;28;20175;-35
2023/08/02 03:39:26;;;;;;;1.90;1.35;;;21.20;84.40;;;;;;4970536;28;20559;-35
2023/08/02 03:41:53;;;;;;;2.33;1.20;;;21.10;80.20;;;;;;4961521;28;20551;-36
2023/08/02 03:44:20;;;;;;;2.70;1.38;;;;;;;;;;4951313;28;20461;-36
2023/08/02 03:46:47;;;;;;;2.03;1.10;;;21.00;76.60;;;;;;4951313;28;20134;-39
2023/08/02 03:49:14;;;;;;;1.77;1.10;;;20.00;83.70;;;;;;4951393;28;20058;-36
2023/08/02 03:51:41;;;;;;;2.50;1.23;;;20.50;71.20;;;;;;4951244;28;20043;-36
2023/08/02 03:54:08;;;;;;;1.45;1.00;;;20.80;84.00;;;;;;4950374;28;20130;-38
2023/08/02 03:56:36;;;;;;;2.88;1.20;;;20.60;68.10;;;;;;4951094;28;20138;-34
2023/08/02 03:59:03;;;;;;;2.63;1.23;;;;;;;;;;4951102;28;20055;-35
2023/08/02 04:01:30;;;;;;;1.83;1.30;;;21.40;84.40;;;;;;4955601;28;20146;-37
2023/08/02 04:03:56;;;;;;;2.63;1.30;;;20.30;83.90;;;;;;4961414;28;20134;-38
2023/08/02 04:06:23;;;;;;;2.13;1.10;;;;;;;;;;4952831;28;20137;-35
2023/08/02 04:08:50;;;;;;;2.58;1.35;;;20.40;82.00;;;;;;4969322;28;20135;-36
2023/08/02 04:11:17;;;;;;;3.30;1.20;;;21.20;85.10;;;;;;4957159;28;20127;-36
2023/08/02 04:13:45;;;;;;;2.92;1.30;;;20.20;79.90;;;;;;4950698;28;20583;-38
2023/08/02 04:16:12;;;;;;;3.17;1.50;;;20.10;78.20;;;;;;4954061;28;20129;-35
2023/08/02 04:18:39;;;;;;;1.50;1.10;;;20.30;83.90;;;;;;4970247;28;20078;-35
2023/08/02 04:21:06;;;;;;;2.42;1.77;;;;;;;;;;4970322;28;20129;-33
2023/08/02 04:23:32;;;;;;;1.52;1.15;;;20.40;84.20;;;;;;4969897;28;20133;-37
2023/08/02 04:25:59;;;;;;;3.00;1.20;;;21.30;84.30;;;;;;4969436;28;20134;-37
2023/08/02 04:28:26;;;;;;;2.13;1.23;;;20.30;70.80;;;;;;4969977;28;20130;-36
2023/08/02 04:30:54;;;;;;;2.67;1.50;;;20.60;84.20;;;;;;4970136;28;20047;-39
2023/08/02 04:33:21;;;;;;;1.80;1.20;;;21.60;84.90;;;;;;4969797;28;20129;-36
2023/08/02 04:35:48;;;;;;;1.65;1.30;;;;;;;;;;4954436;28;20598;-35
2023/08/02 04:38:15;;;;;;;3.45;1.40;;;20.50;84.30;;;;;;4950621;28;20587;-36
2023/08/02 04:40:41;;;;;;;2.70;1.17;;;20.30;83.80;;;;;;4950539;28;20079;-37
2023/08/02 04:43:08;;;;;;;1.38;1.25;;;;;;;;;;4950696;28;20197;-34
2023/08/02 04:45:35;;;;;;;2.55;1.45;;;19.90;83.60;;;;;;4964006;28;20150;-36
2023/08/02 04:48:03;;;;;;;2.65;1.52;;;;;;;;;;4969780;28;20090;-37
2023/08/02 04:50:33;;;;;;;2.25;1.23;;;20.60;68.00;;;;;;4969529;28;20556;-35
2023/08/02 04:53:01;;;;;;;1.33;1.20;;;21.50;77.30;;;;;;4969635;28;20153;-36
2023/08/02 04:55:28;;;;;;;2.33;1.15;;;20.00;83.70;;;;;;4957351;28;20147;-40
2023/08/02 04:57:55;;;;;;;2.03;1.20;;;20.60;84.80;;;;;;4950733;28;20047;-36
2023/08/02 05:00:22;;;;;;;2.05;1.35;;;21.20;84.30;;;;;;4950240;28;20614;-38
2023/08/02 05:02:49;;;;;;;2.60;1.50;;;;;;;;;;4950305;28;20138;-34
2023/08/02 05:05:17;;;;;;;2.85;1.40;;;20.60;83.90;;;;;;4954172;28;20135;-35
2023/08/02 05:07:44;;;;;;;2.40;1.50;;;20.60;84.20;;;;;;4966083;28;20130;-40
2023/08/02 05:10:11;;;;;;;2.00;1.40;;;20.20;84.50;;;;;;4972736;28;20078;-37
2023/08/02 05:12:38;;;;;;;1.52;1.20;;;20.30;83.00;;;;;;4968658;28;20082;-37
2023/08/02 05:15:06;;;;;;;1.67;1.20;;;21.10;84.20;;;;;;4962516;28;20568;-39
2023/08/02 05:17:32;;;;;;;2.47;1.30;;;20.50;84.70;;;;;;4972882;28;20134;-37
2023/08/02 05:19:59;;;;;;;2.05;1.25;;;;;;;;;;4972454;28;20145;-36
2023/08/02 05:22:27;;;;;;;2.67;1.52;;;20.80;84.80;;;;;;4972580;28;20129;-36
2023/08/02 05:24:54;;;;;;;1.73;1.40;;;21.10;84.50;;;;;;4965131;28;20524;-39
2023/08/02 05:27:21;;;;;;;2.38;1.52;;;20.40;84.70;;;;;;4953690;28;20126;-35
2023/08/02 05:29:48;;;;;;;2.03;1.45;;;20.80;71.30;;;;;;4953256;28;20134;-34
2023/08/02 05:32:14;;;;;;;2.10;1.38;;;20.50;84.60;;;;;;4953109;28;20131;-39
2023/08/02 05:34:41;;;;;;;1.83;1.30;;;19.40;83.40;;;;;;4958615;28;20135;-39
2023/08/02 05:37:08;;;;;;;2.33;1.40;;;21.70;73.00;;;;;;4971958;28;20130;-38
2023/08/02 05:39:36;;;;;;;2.92;1.60;;;20.40;83.80;;;;;;4972521;28;20138;-38
2023/08/02 05:42:03;;;;;;;3.55;1.50;;;20.90;84.90;;;;;;4972366;28;20129;-38
2023/08/02 05:44:29;;;;;;;1.92;1.35;;;20.90;84.00;;;;;;4971552;28;20531;-39
2023/08/02 05:46:56;;;;;;;2.15;1.27;;;20.40;70.40;;;;;;4969617;28;20082;-36
2023/08/02 05:49:23;;;;;;;3.03;1.70;;;20.20;72.30;;;;;;4953474;28;20138;-39
2023/08/02 05:51:49;;;;;;;2.15;1.17;;;20.90;84.00;;;;;;4953059;28;20138;-35
2023/08/02 05:54:17;;;;;;;2.63;1.40;;;;;;;;;;4954538;28;20481;-34
2023/08/02 05:56:45;;;;;;;2.88;1.38;;;21.40;84.30;;;;;;4972189;28;20129;-39
2023/08/02 05:59:11;;;;;;;3.83;1.30;;;20.40;79.80;;;;;;4972073;28;20499;-38
2023/08/02 06:01:38;;;;;;;2.03;1.50;;;20.90;84.00;;;;;;4972257;28;20122;-37
2023/08/02 06:04:05;;;;;;;3.17;1.50;;;20.10;71.00;;;;;;4971406;28;20134;-35
2023/08/02 06:06:32;;;;;;;2.42;1.60;;;20.40;83.80;;;;;;4970447;28;20510;-35
2023/08/02 06:08:59;;;;;;;5.13;1.40;;;;;;;;;;4959188;28;20135;-36
2023/08/02 06:11:26;;;;;;;2.25;1.48;;;20.40;83.80;;;;;;4970337;28;20126;-36
2023/08/02 06:13:55;;;;;;;2.75;1.67;;;20.40;75.30;;;;;;4961147;28;20051;-35
2023/08/02 06:16:22;;;;;;;2.53;1.50;;;19.90;76.70;;;;;;4958666;28;20071;-34
2023/08/02 06:18:50;;;;;;;3.28;1.70;;;;;;;;;;4951571;28;20079;-32
2023/08/02 06:21:16;;;;;;;2.05;1.30;;;20.70;77.70;;;;;;4955174;28;20058;-36
2023/08/02 06:23:43;;;;;;;2.22;1.48;;;;;;;;;;4952579;28;20058;-36
2023/08/02 06:26:10;;;;;;;4.93;1.50;;;20.10;83.60;;;;;;4968368;28;20144;-37
2023/08/02 06:28:37;;;;;;;3.40;1.40;;;21.00;84.90;;;;;;4971807;28;20059;-39
2023/08/02 06:31:05;;;;;;;4.47;1.85;;;20.50;71.40;;;;;;4971451;28;20057;-35
2023/08/02 06:33:32;;;;;;;2.40;1.50;;;;;;;;;;4961016;28;20130;-36
2023/08/02 06:35:59;;;;;;;2.83;1.40;;;;;;;;;;4963118;28;20129;-36
2023/08/02 06:38:26;;;;;;;2.63;1.40;;;;;;;;;;4971710;28;20082;-36
2023/08/02 06:40:53;;;;;;;3.63;1.77;;;;;;;;;;4971761;28;20138;-38
2023/08/02 06:43:20;;;;;;;6.60;1.60;;;;;;;;;;4970370;28;20129;-36
2023/08/02 06:45:47;;;;;;;2.40;1.30;;;21.00;84.00;;;;;;4971485;28;20564;-35
2023/08/02 06:48:18;;;;;;;5.75;1.45;;;21.30;84.40;;;;;;4971523;28;20137;-39
2023/08/02 06:50:45;;;;;;;7.40;1.42;;;20.40;84.60;;;;;;4965687;28;20547;-35
2023/08/02 06:53:12;;;;;;;2.38;1.30;;;;;;;;;;4967799;28;20118;-36
2023/08/02 06:55:39;;;;;;;3.78;1.70;;;20.00;84.50;;;;;;4952938;28;20082;-37
2023/08/02 06:58:06;;;;;;;4.15;1.58;;;;;;;;;;4951927;29;20079;-39
2023/08/02 07:00:33;;;;;;;3.13;1.65;;;21.10;74.60;;;;;;4951980;29;20138;-39
2023/08/02 07:03:00;;;;;;;4.55;1.75;;;21.40;84.50;;;;;;4951665;28;20520;-38
2023/08/02 07:05:28;;;;;;;5.28;1.58;;;20.70;68.30;;;;;;4958714;28;20236;-32
2023/08/02 07:07:55;;;;;;;4.75;2.00;;;20.60;84.40;;;;;;4956854;28;20079;-36
2023/08/02 07:10:22;;;;;;;3.42;1.73;;;20.70;84.50;;;;;;4951841;28;20130;-38
2023/08/02 07:12:50;;;;;;;3.33;1.60;;;;;;;;;;4958099;28;20126;-37
2023/08/02 07:15:16;;;;;;;4.47;1.65;;;20.10;84.20;;;;;;4964288;28;20051;-39
2023/08/02 07:17:44;;;;;;;4.30;1.50;;;21.10;79.00;;;;;;4970505;28;20104;-36
2023/08/02 07:20:11;;;;;;;3.22;1.70;;;20.00;81.40;;;;;;4970878;28;20054;-37
2023/08/02 07:22:39;;;;;;;2.95;1.50;;;20.80;84.00;;;;;;4955344;28;20134;-38
2023/08/02 07:25:07;;;;;;;4.88;1.70;;;20.70;84.30;;;;;;4951756;28;20130;-38
2023/08/02 07:27:33;;;;;;;3.35;1.40;;;20.40;70.40;;;;;;4951473;28;20134;-36
2023/08/02 07:30:00;;;;;;;3.67;1.60;;;20.90;84.20;;;;;;4951406;28;20520;-38
2023/08/02 07:32:27;;;;;;;3.17;1.60;;;21.20;85.30;;;;;;4964880;28;20082;-38
2023/08/02 07:34:54;;;;;;;4.50;1.52;;;;;;;;;;4970747;28;20486;-36
2023/08/02 07:37:20;;;;;;;3.33;1.92;;;21.10;84.40;;;;;;4970323;28;20150;-35
2023/08/02 07:39:48;;;;;;;3.63;1.50;;;20.50;84.90;;;;;;4967272;28;20122;-40
2023/08/02 07:42:16;;;;;;;3.55;1.60;;;20.60;73.00;;;;;;4955078;28;20153;-32
2023/08/02 07:44:43;;;;;;;4.18;2.10;;;20.40;84.00;;;;;;4951544;29;20082;-35
2023/08/02 07:47:10;;;;;;;3.03;1.50;;;20.20;84.20;;;;;;4959068;28;20123;-37
2023/08/02 07:49:37;;;;;;;3.13;1.70;;;21.30;78.60;;;;;;4961523;28;20049;-36
2023/08/02 07:52:04;;;;;;;5.07;1.70;;;20.70;73.90;;;;;;4972700;28;20120;-36
2023/08/02 07:54:31;;;;;;;2.03;1.40;;;20.50;72.90;;;;;;4959927;28;20155;-35
2023/08/02 07:56:59;;;;;;;4.60;1.60;;;21.40;69.40;;;;;;4961689;28;20126;-35
2023/08/02 07:59:26;;;;;;;4.65;1.70;;;;;;;;;;4960305;28;20121;-36
2023/08/02 08:01:53;;;;;;;5.75;1.50;;;21.60;84.40;;;;;;4960346;28;20130;-35
2023/08/02 08:04:20;;;;;;;3.15;1.70;;;20.70;84.30;;;;;;4959020;28;20047;-39
2023/08/02 08:06:47;;;;;;;3.85;1.88;;;21.10;72.50;;;;;;4973754;28;20448;-37
2023/08/02 08:09:13;;;;;;;3.53;1.70;;;20.60;83.80;;;;;;4962955;28;20500;-37
2023/08/02 08:11:40;;;;;;;4.70;1.50;;;20.70;84.20;;;;;;4959742;28;20053;-39
2023/08/02 08:14:08;;;;;;;3.80;1.50;;;19.70;79.60;;;;;;4967024;28;20559;-38
2023/08/02 08:16:35;;;;;;;3.67;1.95;;;20.90;78.30;;;;;;4961474;28;20131;-37
2023/08/02 08:19:02;;;;;;;4.05;2.22;;;21.60;84.70;;;;;;4962316;28;20473;-37
2023/08/02 08:21:31;;;;;;;7.30;1.90;;;;;;;;;;4957986;28;20636;-38
2023/08/02 08:23:57;;;;;;;4.45;1.63;;;19.50;84.10;;;;;;4969955;28;20553;-39
2023/08/02 08:26:24;;;;;;;3.33;1.70;;;20.00;84.20;;;;;;4964894;28;20139;-40
2023/08/02 08:28:52;;;;;;;4.50;1.73;;;;;;;;;;4963225;28;20468;-33
2023/08/02 08:31:20;;;;;;;5.55;2.00;;;20.80;84.50;;;;;;4966478;28;20043;-38
2023/08/02 08:33:46;;;;;;;5.03;1.52;;;20.50;72.30;;;;;;4950557;28;20134;-40
2023/08/02 08:36:14;;;;;;;3.08;1.52;;;20.60;68.30;;;;;;4954872;28;20229;-36
2023/08/02 08:38:40;;;;;;;4.95;1.77;;;20.80;85.20;;;;;;4959332;28;20047;-37
2023/08/02 08:41:07;;;;;;;2.50;1.70;;;;;;;;;;4962244;28;20050;-36
2023/08/02 08:43:35;;;;;;;3.58;1.88;;;20.40;84.20;;;;;;4961858;28;20057;-36
2023/08/02 08:46:02;;;;;;;3.97;1.60;;;;;;;;;;4960200;28;20094;-37
2023/08/02 08:48:30;;;;;;;3.88;1.67;;;20.20;84.10;;;;;;4966813;28;20133;-35
2023/08/02 08:50:57;;;;;;;6.20;1.40;;;20.40;84.20;;;;;;4964298;28;20138;-35
2023/08/02 08:53:28;;;;;;;2.85;1.55;;;20.60;68.50;;;;;;4967361;28;20095;-32
2023/08/02 08:55:55;;;;;;;2.42;1.55;;;20.10;84.10;;;;;;4964661;28;20496;-36
2023/08/02 08:58:22;;;;;;;3.22;1.70;;;;;;;;;;4965901;28;20061;-37
2023/08/02 09:00:49;;;;;;;4.40;2.00;;;;;;;;;;4960581;28;20059;-33
2023/08/02 09:03:16;;;;;;;3.55;1.73;;;;;;;;;;4955565;28;20042;-36
2023/08/02 09:05:44;;;;;;;5.28;1.92;;;21.40;84.90;;;;;;4963297;28;20130;-35
2023/08/02 09:08:11;;;;;;;3.90;1.90;;;20.50;84.50;;;;;;4961829;28;20393;-38
2023/08/02 09:10:38;;;;;;;4.63;1.80;;;20.60;68.60;;;;;;4959101;28;20141;-38
2023/08/02 09:13:05;;;;;;;6.22;1.70;;;20.50;80.30;;;;;;4961130;28;20043;-36
2023/08/02 09:15:32;;;;;;;5.68;2.00;;;;;;;;;;4964071;28;20141;-36
2023/08/02 09:17:59;;;;;;;4.85;1.92;;;;;;;;;;4959990;28;21833;-31
2023/08/02 09:20:27;;;;;;;4.70;2.05;;;20.30;84.60;;;;;;4958561;28;20484;-37
2023/08/02 09:22:55;;;;;;;4.18;1.70;;;20.60;85.50;;;;;;4959370;28;20045;-36
2023/08/02 09:25:23;;;;;;;5.45;1.98;;;19.90;84.40;;;;;;4956769;28;20134;-39
2023/08/02 09:27:50;;;;;;;3.53;1.85;;;20.70;78.40;;;;;;4959624;28;20057;-37
2023/08/02 09:30:24;;;;;;;7.05;1.92;;;20.60;68.90;;;;;;4957710;28;20426;-36
2023/08/02 09:33:05;;;;;;;3.35;1.75;;;20.60;68.90;;;;;;4960159;28;20047;-36
2023/08/02 09:35:33;;;;;;;3.80;1.85;;;20.80;85.40;;;;;;4960117;28;20474;-36
2023/08/02 09:38:01;;;;;;;3.45;1.73;;;20.50;68.90;;;;;;4956172;28;20054;-33
2023/08/02 09:40:35;;;;;;;2.75;1.58;;;21.30;77.30;;;;;;4961470;28;20114;-37
2023/08/02 09:43:03;;;;;;;5.20;1.83;;;;;;;;;;4956015;28;20061;-35
2023/08/02 09:45:34;;;;;;;2.97;1.60;;;20.50;84.90;;;;;;4961960;28;20555;-40
2023/08/02 09:48:00;;;;;;;4.30;2.15;;;19.70;84.60;;;;;;4961952;28;20476;-37
2023/08/02 09:50:27;;;;;;;4.47;2.00;;;19.50;84.50;;;;;;4967427;28;20057;-39
2023/08/02 09:52:54;;;;;;;3.17;1.70;;;;;;;;;;4965334;28;20053;-33
2023/08/02 09:55:22;;;;;;;5.38;1.90;;;20.60;85.00;;;;;;4975892;28;20596;-38
2023/08/02 09:57:49;;;;;;;4.38;1.70;;;20.90;85.20;;;;;;4961828;28;20118;-36
2023/08/02 10:00:17;;;;;;;4.90;1.80;;;19.90;77.30;;;;;;4961836;28;20051;-36
2023/08/02 10:02:45;;;;;;;7.40;1.60;;;;;;;;;;4952418;28;20070;-35
2023/08/02 10:05:12;;;;;;;3.55;1.73;;;;;;;;;;4957949;28;20050;-37
2023/08/02 10:07:40;;;;;;;5.10;1.80;;;21.50;85.60;;;;;;4956840;28;20538;-38
2023/08/02 10:10:09;;;;;;;4.60;1.90;;;20.60;69.10;;;;;;4956633;28;20057;-37
2023/08/02 10:12:37;;;;;;;4.53;1.75;;;20.60;69.20;;;;;;4958024;28;20971;-33
2023/08/02 10:15:04;;;;;;;2.95;1.77;;;;;;;;;;4954163;28;20070;-38
2023/08/02 10:17:31;;;;;;;3.28;1.50;;;21.10;78.00;;;;;;4955935;28;20481;-38
2023/08/02 10:19:59;;;;;;;4.55;1.88;;;20.40;85.00;;;;;;4960223;28;20132;-37
2023/08/02 10:22:26;;;;;;;4.05;1.95;;;20.40;72.00;;;;;;4955078;28;20389;-40
2023/08/02 10:24:53;;;;;;;3.72;1.67;;;20.60;69.30;;;;;;4959435;28;20082;-32
2023/08/02 10:27:20;;;;;;;4.78;1.80;;;21.20;86.30;;;;;;4957034;28;20054;-36
2023/08/02 10:29:48;;;;;;;4.35;1.70;;;20.60;69.40;;;;;;4955875;28;20174;-30
2023/08/02 10:32:17;;;;;;;2.10;1.58;;;20.60;69.30;;;;;;4956635;28;20050;-33
2023/08/02 10:34:47;;;;;;;3.53;1.75;;;20.70;81.60;;;;;;4961075;28;20454;-37
2023/08/02 10:37:14;;;;;;;3.25;1.77;;;20.50;85.30;;;;;;4954453;28;20093;-35
2023/08/02 10:39:54;;;;;;;3.83;1.80;;;20.80;72.20;;;;;;4960277;28;20627;-39
2023/08/02 10:42:22;;;;;;;3.22;1.90;;;20.60;69.50;;;;;;4965412;28;20058;-38
2023/08/02 10:45:13;;;;;;;6.65;1.75;;;21.10;85.70;;;;;;4961553;28;20053;-36
2023/08/02 10:47:40;;;;;;;3.85;1.90;;;;;;;;;;4961922;28;20050;-35
2023/08/02 10:50:07;;;;;;;4.68;1.60;;;20.50;86.20;;;;;;4959086;28;20053;-36
2023/08/02 10:52:34;;;;;;;3.40;1.90;;;20.40;69.60;;;;;;4960914;28;20511;-32
2023/08/02 10:55:19;;;;;;;3.38;1.70;;;20.00;85.40;;;;;;4955900;28;20131;-36
2023/08/02 10:58:05;;;;;;;4.50;1.50;;;20.60;69.70;;;;;;4966365;28;20130;-38
2023/08/02 11:00:34;;;;;;;9.05;1.85;;;20.60;69.80;;;;;;4960935;28;20055;-35
2023/08/02 11:03:01;;;;;;;4.05;1.92;;;20.20;85.80;;;;;;4958749;28;20122;-38
2023/08/02 11:05:38;;;;;;;5.35;1.67;;;20.80;86.60;;;;;;4964423;28;20055;-36
2023/08/02 11:08:07;;;;;;;6.53;2.00;;;21.00;85.80;;;;;;4960685;28;20138;-37
2023/08/02 11:10:34;;;;;;;5.18;1.70;;;20.60;69.80;;;;;;4956816;28;20126;-33
2023/08/02 11:13:01;;;;;;;5.60;1.67;;;21.30;86.20;;;;;;4962317;28;20054;-36
2023/08/02 11:15:28;;;;;;;4.25;1.80;;;21.10;86.40;;;;;;4963254;28;20127;-40
2023/08/02 11:17:57;;;;;;;4.25;1.60;;;20.10;80.70;;;;;;4964074;28;20131;-37
2023/08/02 11:20:25;;;;;;;7.70;1.98;;;20.70;70.00;;;;;;4956472;28;20129;-35
2023/08/02 11:22:53;;;;;;;5.78;2.10;;;;;;;;;;4955360;28;20043;-36
2023/08/02 11:25:20;;;;;;;3.08;1.60;;;20.40;85.80;;;;;;4964056;28;20073;-35
2023/08/02 11:27:47;;;;;;;3.05;1.63;;;;;;;;;;4958258;28;20058;-33
2023/08/02 11:30:14;;;;;;;3.53;1.50;;;20.90;71.80;;;;;;4957690;28;20129;-40
2023/08/02 11:32:42;;;;;;;4.90;1.70;;;20.80;86.70;;;;;;4960076;28;20074;-37
2023/08/02 11:35:14;;;;;;;4.75;1.98;;;20.70;80.70;;;;;;4960907;28;20130;-37
2023/08/02 11:37:41;;;;;;;2.88;1.80;;;21.60;73.60;;;;;;4956409;28;20133;-36
2023/08/02 11:40:09;;;;;;;5.57;1.58;;;20.80;85.90;;;;;;4966764;28;20158;-39
2023/08/02 11:42:50;;;;;;;2.50;1.60;;;20.60;86.60;;;;;;4950894;28;20047;-39
2023/08/02 11:45:27;;;;;;;3.17;1.60;;;20.70;70.00;;;;;;4962756;28;20051;-38
2023/08/02 11:47:54;;;;;;;6.63;1.90;;;20.60;75.90;;;;;;4960575;28;20126;-38
2023/08/02 11:50:25;;;;;;;9.43;2.10;;;19.90;85.60;;;;;;4966540;28;20133;-36
2023/08/02 11:52:52;;;;;;;4.28;1.67;;;;;;;;;;4960917;28;20045;-36
2023/08/02 11:55:21;;;;;;;6.07;1.63;;;20.50;85.90;;;;;;4958601;28;20480;-39
2023/08/02 11:57:48;;;;;;;7.20;1.63;;;;;;;;;;4962846;28;20054;-36
2023/08/02 12:00:16;;;;;;;3.60;1.52;;;21.40;73.50;;;;;;4959671;28;20668;-38
2023/08/02 12:02:43;;;;;;;4.25;1.70;;;21.50;86.40;;;;;;4956528;28;20131;-35
2023/08/02 12:05:19;;;;;;;2.22;1.58;;;20.90;70.30;;;;;;4954284;28;20086;-33
2023/08/02 12:07:48;;;;;;;3.30;1.77;;;21.00;86.10;;;;;;4960388;28;20528;-38
2023/08/02 12:10:27;;;;;;;3.65;1.60;;;21.20;86.20;;;;;;4958158;28;20443;-35
2023/08/02 12:12:54;;;;;;;4.97;1.75;;;;;;;;;;4949059;28;20416;-35
2023/08/02 12:15:21;;;;;;;4.28;1.80;;;20.90;71.00;;;;;;4948161;28;20129;-36
2023/08/02 12:17:48;;;;;;;8.98;1.70;;;;;;;;;;4949234;28;20623;-37
2023/08/02 12:20:29;;;;;;;5.35;1.50;;;21.30;84.40;;;;;;4957529;28;20067;-36
2023/08/02 12:22:57;;;;;;;4.97;1.90;;;21.40;72.20;;;;;;4959462;28;20118;-35
2023/08/02 12:25:24;;;;;;;4.13;1.52;;;;;;;;;;4955768;28;20126;-39
2023/08/02 12:28:04;;;;;;;3.60;1.30;;;20.90;70.20;;;;;;4959861;28;20050;-37
2023/08/02 12:30:31;;;;;;;3.47;1.50;;;21.10;86.70;;;;;;4961968;28;20055;-36
2023/08/02 12:32:58;;;;;;;4.93;1.67;;;20.80;85.80;;;;;;4960637;28;20039;-37
2023/08/02 12:35:25;;;;;;;3.25;1.58;;;21.70;85.40;;;;;;4959563;28;20043;-35
2023/08/02 12:37:52;;;;;;;3.50;1.45;;;21.00;78.60;;;;;;4969484;28;20458;-36
2023/08/02 12:40:20;;;;;;;3.25;1.38;;;20.90;69.90;;;;;;4969548;28;20054;-32
2023/08/02 12:42:47;;;;;;;5.47;1.50;;;;;;;;;;4979652;28;20534;-33
2023/08/02 12:45:14;;;;;;;5.75;1.50;;;21.00;86.30;;;;;;5051475;28;20561;-38
2023/08/02 12:47:40;;;;;;;2.38;1.42;;;21.20;86.40;;;;;;5051569;28;20132;-36
2023/08/02 12:50:08;;;;;;;4.07;1.38;;;21.00;69.80;;;;;;5051364;28;20132;-35
2023/08/02 12:52:35;;;;;;;3.35;1.45;;;;;;;;;;4963754;28;20087;-39
2023/08/02 12:55:03;;;;;;;3.50;1.73;;;;;;;;;;4950480;28;20568;-36
2023/08/02 12:57:31;;;;;;;3.25;1.30;;;21.20;78.60;;;;;;4950760;28;20059;-36
2023/08/02 12:59:59;;;;;;;3.08;1.30;;;21.40;85.30;;;;;;4950130;28;20394;-37
2023/08/02 13:02:26;;;;;;;2.40;1.42;;;;;;;;;;4950369;28;20052;-33
2023/08/02 13:04:52;;;;;;;2.65;1.17;;;20.20;85.10;;;;;;4950273;28;20130;-40
2023/08/02 13:07:19;;;;;;;3.45;1.40;;;21.10;86.10;;;;;;4959391;28;20122;-39
2023/08/02 13:09:46;;;;;;;4.32;1.50;;;21.20;78.20;;;;;;4969713;28;20397;-38
2023/08/02 13:12:13;;;;;;;2.45;1.40;;;20.60;85.10;;;;;;4959839;28;20142;-38